createdAt,value
2023-02-20T00:01:06.331Z,6.80
2023-02-20T00:03:34.147Z,6.90
2023-02-20T00:06:02.011Z,7.00
2023-02-20T00:08:29.676Z,6.90
2023-02-20T00:10:57.437Z,6.90
2023-02-20T00:13:25.065Z,6.90
2023-02-20T00:15:52.816Z,6.80
2023-02-20T00:18:20.583Z,6.90
2023-02-20T00:20:48.477Z,6.80
2023-02-20T00:23:16.151Z,6.90
2023-02-20T00:25:44.111Z,7.00
2023-02-20T00:28:11.840Z,6.80
2023-02-20T00:30:39.705Z,6.90
2023-02-20T00:33:07.552Z,6.90
2023-02-20T00:35:35.210Z,6.80
2023-02-20T00:38:02.974Z,6.80
2023-02-20T00:40:30.738Z,7.00
2023-02-20T00:42:58.391Z,7.00
2023-02-20T00:45:28.167Z,6.90
2023-02-20T00:47:56.609Z,6.70
2023-02-20T00:50:25.386Z,6.80
2023-02-20T00:52:53.103Z,6.70
2023-02-20T00:55:20.904Z,6.60
2023-02-20T00:57:48.584Z,6.60
2023-02-20T01:00:26.203Z,6.60
2023-02-20T01:02:54.134Z,6.70
2023-02-20T01:05:24.207Z,6.50
2023-02-20T01:07:54.496Z,6.40
2023-02-20T01:10:22.425Z,6.40
2023-02-20T01:12:50.311Z,6.30
2023-02-20T01:15:18.084Z,6.30
2023-02-20T01:17:46.478Z,6.50
2023-02-20T01:20:14.225Z,6.40
2023-02-20T01:22:41.968Z,6.50
2023-02-20T01:25:11.305Z,6.60
2023-02-20T01:27:39.007Z,6.50
2023-02-20T01:30:08.468Z,6.50
2023-02-20T01:32:37.089Z,6.40
2023-02-20T01:35:04.851Z,6.50
2023-02-20T01:37:32.792Z,6.40
2023-02-20T01:40:00.477Z,6.30
2023-02-20T01:42:32.730Z,6.40
2023-02-20T01:45:23.635Z,6.60
2023-02-20T01:47:53.477Z,6.60
2023-02-20T01:50:43.099Z,6.50
2023-02-20T01:53:17.344Z,6.50
2023-02-20T01:55:54.269Z,6.50
2023-02-20T01:58:26.862Z,6.50
2023-02-20T02:00:56.256Z,6.70
2023-02-20T02:03:33.853Z,6.60
2023-02-20T02:06:05.997Z,6.40
2023-02-20T02:08:36.889Z,6.40
2023-02-20T02:11:09.146Z,6.30
2023-02-20T02:13:39.309Z,6.40
2023-02-20T02:16:25.459Z,6.30
2023-02-20T02:19:05.278Z,6.20
2023-02-20T02:22:20.558Z,6.20
2023-02-20T02:25:00.273Z,6.30
2023-02-20T02:28:02.811Z,6.10
2023-02-20T02:30:36.507Z,5.90
2023-02-20T02:33:10.460Z,5.80
2023-02-20T02:35:50.059Z,5.50
2023-02-20T02:38:33.202Z,5.50
2023-02-20T02:41:12.752Z,5.40
2023-02-20T02:44:03.941Z,5.30
2023-02-20T02:46:43.362Z,5.20
2023-02-20T02:49:22.970Z,5.10
2023-02-20T02:51:53.096Z,5.00
2023-02-20T02:54:27.105Z,4.80
2023-02-20T02:57:25.399Z,4.80
2023-02-20T03:00:10.685Z,4.70
2023-02-20T03:02:49.695Z,4.60
2023-02-20T03:05:22.631Z,4.60
2023-02-20T03:07:55.432Z,4.60
2023-02-20T03:10:32.124Z,4.40
2023-02-20T03:13:04.911Z,4.40
2023-02-20T03:15:39.157Z,4.30
2023-02-20T03:18:20.427Z,4.20
2023-02-20T03:21:13.597Z,4.20
2023-02-20T03:23:46.308Z,4.10
2023-02-20T03:26:22.735Z,4.00
2023-02-20T03:29:24.958Z,3.90
2023-02-20T03:32:31.893Z,3.80
2023-02-20T03:35:19.611Z,3.70
2023-02-20T03:38:08.797Z,3.60
2023-02-20T03:40:57.948Z,3.50
2023-02-20T03:43:33.013Z,3.50
2023-02-20T03:46:13.506Z,3.50
2023-02-20T03:48:54.151Z,3.40
2023-02-20T03:51:23.443Z,3.40
2023-02-20T03:53:57.699Z,3.30
2023-02-20T03:56:30.401Z,3.30
2023-02-20T03:59:26.323Z,3.30
2023-02-20T04:01:58.920Z,3.30
2023-02-20T04:04:37.440Z,3.30
2023-02-20T04:07:10.257Z,3.30
2023-02-20T04:09:43.328Z,3.40
2023-02-20T04:12:23.643Z,3.40
2023-02-20T04:14:54.131Z,3.40
2023-02-20T04:17:30.390Z,3.40
2023-02-20T04:19:59.945Z,3.40
2023-02-20T04:22:34.567Z,3.30
2023-02-20T04:25:13.366Z,3.30
2023-02-20T04:27:42.298Z,3.30
2023-02-20T04:30:11.605Z,3.30
2023-02-20T04:32:39.331Z,3.30
2023-02-20T04:35:07.890Z,3.20
2023-02-20T04:37:37.116Z,3.20
2023-02-20T04:40:05.983Z,3.20
2023-02-20T04:42:34.309Z,3.20
2023-02-20T04:45:02.073Z,3.20
2023-02-20T04:47:31.844Z,3.10
2023-02-20T04:50:01.324Z,3.10
2023-02-20T04:52:30.827Z,3.10
2023-02-20T04:54:58.454Z,3.10
2023-02-20T04:57:26.725Z,3.10
2023-02-20T04:59:54.400Z,3.00
2023-02-20T05:02:22.156Z,3.10
2023-02-20T05:04:49.802Z,3.00
2023-02-20T05:07:20.476Z,3.00
2023-02-20T05:09:48.130Z,2.90
2023-02-20T05:12:15.938Z,2.90
2023-02-20T05:14:43.605Z,2.90
2023-02-20T05:17:11.367Z,2.80
2023-02-20T05:19:39.023Z,2.80
2023-02-20T05:22:18.923Z,2.70
2023-02-20T05:24:48.601Z,2.70
2023-02-20T05:27:20.584Z,2.70
2023-02-20T05:29:53.385Z,2.70
2023-02-20T05:32:22.641Z,2.70
2023-02-20T05:34:50.695Z,2.60
2023-02-20T05:37:20.268Z,2.50
2023-02-20T05:39:48.357Z,2.50
2023-02-20T05:42:19.839Z,2.40
2023-02-20T05:44:49.698Z,2.30
2023-02-20T05:47:17.858Z,2.20
2023-02-20T05:49:46.818Z,2.20
2023-02-20T05:52:20.344Z,2.10
2023-02-20T05:54:48.579Z,2.10
2023-02-20T05:57:16.396Z,2.00
2023-02-20T05:59:44.019Z,1.90
2023-02-20T06:02:11.915Z,1.90
2023-02-20T06:04:39.626Z,1.90
2023-02-20T06:07:10.464Z,1.80
2023-02-20T06:09:41.648Z,1.80
2023-02-20T06:12:09.484Z,1.80
2023-02-20T06:14:37.204Z,1.70
2023-02-20T06:17:04.912Z,1.80
2023-02-20T06:19:32.723Z,1.80
2023-02-20T06:22:00.681Z,1.80
2023-02-20T06:24:29.536Z,1.70
2023-02-20T06:26:57.605Z,1.60
2023-02-20T06:29:25.266Z,1.60
2023-02-20T06:31:53.065Z,1.60
2023-02-20T06:34:20.836Z,1.50
2023-02-20T06:36:50.759Z,1.60
2023-02-20T06:39:18.424Z,1.50
2023-02-20T06:41:46.114Z,1.60
2023-02-20T06:44:13.924Z,1.60
2023-02-20T06:46:42.114Z,1.50
2023-02-20T06:49:10.599Z,1.60
2023-02-20T06:51:40.346Z,1.60
2023-02-20T06:54:10.299Z,1.60
2023-02-20T06:56:39.050Z,1.60
2023-02-20T06:59:09.400Z,1.60
2023-02-20T07:01:43.361Z,1.50
2023-02-20T07:04:20.358Z,1.60
2023-02-20T07:06:48.516Z,1.60
2023-02-20T07:09:17.092Z,1.50
2023-02-20T07:11:44.868Z,1.50
2023-02-20T07:14:13.662Z,1.50
2023-02-20T07:16:41.422Z,1.60
2023-02-20T07:19:09.293Z,1.60
2023-02-20T07:21:37.388Z,1.70
2023-02-20T07:24:05.965Z,1.70
2023-02-20T07:26:33.654Z,1.80
2023-02-20T07:29:01.466Z,1.90
2023-02-20T07:31:29.266Z,2.10
2023-02-20T07:33:57.841Z,2.50
2023-02-20T07:36:26.582Z,3.00
2023-02-20T07:38:59.242Z,3.50
2023-02-20T07:41:37.876Z,3.70
2023-02-20T07:44:07.308Z,4.10
2023-02-20T07:46:35.197Z,4.50
2023-02-20T07:49:05.105Z,4.40
2023-02-20T07:51:33.438Z,4.60
2023-02-20T07:54:01.291Z,4.90
2023-02-20T07:56:29.719Z,5.20
2023-02-20T07:58:59.304Z,5.30
2023-02-20T08:01:29.351Z,5.60
2023-02-20T08:04:00.065Z,5.80
2023-02-20T08:06:29.001Z,6.20
2023-02-20T08:08:56.657Z,6.40
2023-02-20T08:11:24.810Z,6.60
2023-02-20T08:13:55.858Z,6.90
2023-02-20T08:16:23.558Z,7.10
2023-02-20T08:18:51.528Z,7.30
2023-02-20T08:21:19.728Z,7.80
2023-02-20T08:23:47.766Z,8.10
2023-02-20T08:26:15.714Z,8.50
2023-02-20T08:28:43.532Z,8.80
2023-02-20T08:31:19.918Z,9.10
2023-02-20T08:33:57.620Z,9.60
2023-02-20T08:36:25.257Z,9.40
2023-02-20T08:38:53.119Z,9.60
2023-02-20T08:41:20.939Z,9.70
2023-02-20T08:43:48.747Z,9.80
2023-02-20T08:46:16.864Z,9.70
2023-02-20T08:48:45.574Z,9.90
2023-02-20T08:51:13.707Z,9.90
2023-02-20T08:53:41.443Z,10.30
2023-02-20T08:56:09.930Z,10.60
2023-02-20T08:58:37.636Z,10.70
2023-02-20T09:01:05.845Z,10.60
2023-02-20T09:03:35.048Z,10.60
2023-02-20T09:06:02.803Z,10.70
2023-02-20T09:08:30.538Z,10.40
2023-02-20T09:10:58.432Z,9.90
2023-02-20T09:13:26.580Z,9.70
2023-02-20T09:15:54.260Z,9.60
2023-02-20T09:18:21.916Z,9.70
2023-02-20T09:20:49.746Z,9.80
2023-02-20T09:23:18.357Z,9.60
2023-02-20T09:25:46.062Z,9.60
2023-02-20T09:28:13.672Z,9.80
2023-02-20T09:30:41.486Z,9.90
2023-02-20T09:33:09.689Z,10.10
2023-02-20T09:35:37.297Z,10.30
2023-02-20T09:38:08.168Z,10.20
2023-02-20T09:40:35.871Z,10.20
2023-02-20T09:43:22.190Z,10.10
2023-02-20T09:46:13.360Z,10.00
2023-02-20T09:49:05.903Z,10.00
2023-02-20T09:51:38.628Z,10.00
2023-02-20T09:54:08.917Z,10.00
2023-02-20T09:56:46.240Z,10.00
2023-02-20T09:59:43.698Z,10.00
2023-02-20T10:02:37.651Z,10.10
2023-02-20T10:05:28.225Z,10.10
2023-02-20T10:07:56.174Z,10.20
2023-02-20T10:10:39.392Z,10.30
2023-02-20T10:13:28.411Z,10.20
2023-02-20T10:16:05.341Z,10.30
2023-02-20T10:18:36.114Z,10.40
2023-02-20T10:21:07.116Z,10.60
2023-02-20T10:24:04.648Z,10.70
2023-02-20T10:26:42.781Z,10.70
2023-02-20T10:29:18.175Z,10.80
2023-02-20T10:31:58.223Z,11.00
2023-02-20T10:34:52.002Z,11.00
2023-02-20T10:37:24.831Z,11.20
2023-02-20T10:40:16.143Z,11.30
2023-02-20T10:43:01.980Z,11.70
2023-02-20T10:45:42.575Z,12.10
2023-02-20T10:48:16.036Z,12.30
2023-02-20T10:51:03.383Z,12.80
2023-02-20T10:53:42.149Z,12.90
2023-02-20T10:56:18.632Z,12.90
2023-02-20T10:58:53.668Z,12.70
2023-02-20T11:01:24.992Z,12.60
2023-02-20T11:04:09.679Z,12.70
2023-02-20T11:06:47.009Z,12.80
2023-02-20T11:09:14.746Z,13.10
2023-02-20T11:11:46.956Z,13.70
2023-02-20T11:14:41.584Z,14.40
2023-02-20T11:17:10.707Z,14.70
2023-02-20T11:19:50.097Z,14.40
2023-02-20T11:22:19.350Z,14.10
2023-02-20T11:24:47.074Z,13.30
2023-02-20T11:27:25.783Z,12.90
2023-02-20T11:30:33.098Z,13.50
2023-02-20T11:33:30.064Z,14.20
2023-02-20T11:36:10.073Z,14.60
2023-02-20T11:38:38.174Z,14.40
2023-02-20T11:41:17.937Z,14.70
2023-02-20T11:44:00.892Z,15.10
2023-02-20T11:46:28.987Z,14.90
2023-02-20T11:49:08.065Z,15.30
2023-02-20T11:51:47.114Z,15.60
2023-02-20T11:54:17.604Z,15.60
2023-02-20T11:57:02.455Z,15.10
2023-02-20T11:59:41.796Z,15.10
2023-02-20T12:02:18.423Z,15.10
2023-02-20T12:05:11.074Z,15.30
2023-02-20T12:07:54.771Z,15.00
2023-02-20T12:10:50.638Z,15.30
2023-02-20T12:13:18.870Z,15.60
2023-02-20T12:16:18.791Z,16.10
2023-02-20T12:18:57.598Z,16.20
2023-02-20T12:21:34.606Z,16.40
2023-02-20T12:24:14.511Z,16.30
2023-02-20T12:26:44.776Z,17.30
2023-02-20T12:29:33.883Z,17.90
2023-02-20T12:32:29.159Z,17.90
2023-02-20T12:35:14.988Z,18.00
2023-02-20T12:38:16.380Z,17.80
2023-02-20T12:41:20.153Z,17.30
2023-02-20T12:44:13.392Z,16.90
2023-02-20T12:46:41.559Z,17.20
2023-02-20T12:49:27.869Z,17.60
2023-02-20T12:52:25.596Z,17.10
2023-02-20T12:55:11.259Z,16.50
2023-02-20T12:57:50.978Z,16.30
2023-02-20T13:00:55.845Z,16.00
2023-02-20T13:03:37.689Z,15.90
2023-02-20T13:06:06.654Z,15.90
2023-02-20T13:08:49.890Z,16.30
2023-02-20T13:11:22.237Z,16.20
2023-02-20T13:14:15.782Z,16.10
2023-02-20T13:16:46.578Z,16.00
2023-02-20T13:19:40.086Z,16.00
2023-02-20T13:22:08.812Z,16.30
2023-02-20T13:24:38.703Z,16.50
2023-02-20T13:27:10.980Z,16.10
2023-02-20T13:29:56.197Z,15.90
2023-02-20T13:32:33.405Z,15.40
2023-02-20T13:35:47.067Z,14.50
2023-02-20T13:38:20.710Z,14.10
2023-02-20T13:40:58.887Z,13.50
2023-02-20T13:43:37.465Z,13.30
2023-02-20T13:46:11.581Z,13.00
2023-02-20T13:48:42.699Z,12.70
2023-02-20T13:51:26.620Z,12.60
2023-02-20T13:54:01.483Z,12.50
2023-02-20T13:56:56.241Z,12.30
2023-02-20T13:59:24.048Z,12.10
2023-02-20T14:02:18.087Z,12.10
2023-02-20T14:04:55.728Z,11.80
2023-02-20T14:07:37.455Z,11.70
2023-02-20T14:10:19.941Z,11.60
2023-02-20T14:12:56.439Z,11.60
2023-02-20T14:15:26.533Z,11.30
2023-02-20T14:17:56.867Z,11.20
2023-02-20T14:20:33.078Z,11.30
2023-02-20T14:23:08.270Z,11.20
2023-02-20T14:25:36.264Z,11.20
2023-02-20T14:28:11.377Z,11.30
2023-02-20T14:30:39.423Z,11.40
2023-02-20T14:33:21.994Z,11.50
2023-02-20T14:35:54.692Z,11.60
2023-02-20T14:38:30.976Z,11.50
2023-02-20T14:41:01.344Z,11.60
2023-02-20T14:43:29.532Z,11.80
2023-02-20T14:46:15.722Z,11.80
2023-02-20T14:48:43.770Z,11.80
2023-02-20T14:51:14.562Z,11.90
2023-02-20T14:53:44.251Z,12.20
2023-02-20T14:56:17.847Z,12.40
2023-02-20T14:58:46.574Z,12.40
2023-02-20T15:01:24.609Z,12.30
2023-02-20T15:04:07.381Z,12.10
2023-02-20T15:06:37.885Z,12.30
2023-02-20T15:09:20.977Z,12.30
2023-02-20T15:11:58.000Z,12.20
2023-02-20T15:14:29.545Z,12.20
2023-02-20T15:17:50.079Z,12.00
2023-02-20T15:20:38.782Z,11.70
2023-02-20T15:23:15.810Z,11.20
2023-02-20T15:25:44.658Z,10.90
2023-02-20T15:28:32.619Z,10.90
2023-02-20T15:31:09.434Z,11.00
2023-02-20T15:33:53.534Z,11.40
2023-02-20T15:36:24.710Z,11.70
2023-02-20T15:38:56.542Z,11.60
2023-02-20T15:41:24.755Z,11.20
2023-02-20T15:43:53.185Z,10.90
2023-02-20T15:46:21.170Z,10.70
2023-02-20T15:48:49.101Z,10.50
2023-02-20T15:51:20.979Z,10.10
2023-02-20T15:53:51.157Z,9.90
2023-02-20T15:56:19.230Z,9.80
2023-02-20T15:58:48.542Z,9.60
2023-02-20T16:01:17.219Z,9.40
2023-02-20T16:03:52.388Z,9.20
2023-02-20T16:06:22.987Z,9.00
2023-02-20T16:08:51.781Z,8.80
2023-02-20T16:11:22.830Z,8.70
2023-02-20T16:13:58.264Z,8.70
2023-02-20T16:16:45.835Z,8.70
2023-02-20T16:19:36.701Z,8.60
2023-02-20T16:22:11.301Z,8.50
2023-02-20T16:24:40.248Z,8.30
2023-02-20T16:27:23.132Z,8.20
2023-02-20T16:29:53.024Z,8.20
2023-02-20T16:32:23.703Z,7.90
2023-02-20T16:34:52.881Z,7.60
2023-02-20T16:37:21.513Z,7.50
2023-02-20T16:39:51.900Z,7.40
2023-02-20T16:42:24.894Z,7.50
2023-02-20T16:44:55.406Z,7.60
2023-02-20T16:47:26.350Z,7.70
2023-02-20T16:49:54.163Z,7.70
2023-02-20T16:52:40.061Z,7.60
2023-02-20T16:55:19.435Z,7.50
2023-02-20T16:57:47.425Z,7.40
2023-02-20T17:00:25.387Z,7.30
2023-02-20T17:02:54.362Z,7.20
2023-02-20T17:05:25.778Z,7.10
2023-02-20T17:07:53.889Z,7.00
2023-02-20T17:10:21.910Z,6.90
2023-02-20T17:12:50.245Z,6.80
2023-02-20T17:15:20.930Z,6.90
2023-02-20T17:17:48.680Z,6.90
2023-02-20T17:20:19.685Z,6.90
2023-02-20T17:23:02.786Z,6.80
2023-02-20T17:25:34.594Z,6.70
2023-02-20T17:28:03.620Z,6.50
2023-02-20T17:30:31.353Z,6.50
2023-02-20T17:32:59.461Z,6.50
2023-02-20T17:35:27.274Z,6.40
2023-02-20T17:37:54.996Z,6.20
2023-02-20T17:40:22.814Z,6.10
2023-02-20T17:42:50.542Z,6.00
2023-02-20T17:45:18.332Z,5.90
2023-02-20T17:47:46.808Z,5.90
2023-02-20T17:50:18.578Z,5.90
2023-02-20T17:52:47.046Z,5.80
2023-02-20T17:55:19.914Z,5.70
2023-02-20T17:57:47.719Z,5.60
2023-02-20T18:00:17.181Z,5.40
2023-02-20T18:02:45.154Z,5.30
2023-02-20T18:05:13.079Z,5.20
2023-02-20T18:07:40.835Z,5.10
2023-02-20T18:10:08.710Z,4.90
2023-02-20T18:12:36.718Z,4.70
2023-02-20T18:15:05.518Z,4.70
2023-02-20T18:17:35.397Z,4.70
2023-02-20T18:20:03.178Z,4.60
2023-02-20T18:22:30.805Z,4.80
2023-02-20T18:24:58.491Z,4.90
2023-02-20T18:27:26.859Z,4.60
2023-02-20T18:29:58.397Z,4.50
2023-02-20T18:32:28.684Z,4.30
2023-02-20T18:34:56.591Z,4.30
2023-02-20T18:37:24.288Z,4.20
2023-02-20T18:39:51.937Z,4.20
2023-02-20T18:42:19.624Z,4.20
2023-02-20T18:44:48.742Z,4.20
2023-02-20T18:47:17.016Z,4.20
2023-02-20T18:49:48.081Z,4.10
2023-02-20T18:52:17.572Z,4.10
2023-02-20T18:54:46.529Z,4.10
2023-02-20T18:57:14.305Z,4.20
2023-02-20T18:59:45.341Z,4.30
2023-02-20T19:02:15.240Z,4.10
2023-02-20T19:04:43.230Z,4.10
2023-02-20T19:07:11.055Z,4.00
2023-02-20T19:09:39.015Z,3.90
2023-02-20T19:12:07.885Z,3.70
2023-02-20T19:14:36.079Z,3.70
2023-02-20T19:17:03.983Z,3.80
2023-02-20T19:19:32.237Z,3.70
2023-02-20T19:22:00.974Z,3.70
2023-02-20T19:24:29.062Z,3.60
2023-02-20T19:26:56.771Z,3.60
2023-02-20T19:29:24.679Z,3.60
2023-02-20T19:31:52.368Z,3.60
2023-02-20T19:34:23.048Z,3.50
2023-02-20T19:36:50.758Z,3.50
2023-02-20T19:39:19.711Z,3.60
2023-02-20T19:41:51.674Z,3.50
2023-02-20T19:44:22.863Z,3.50
2023-02-20T19:46:53.302Z,3.50
2023-02-20T19:49:22.720Z,3.40
2023-02-20T19:51:52.723Z,3.30
2023-02-20T19:54:27.884Z,3.30
2023-02-20T19:57:04.345Z,3.20
2023-02-20T19:59:32.033Z,3.10
2023-02-20T20:02:00.794Z,2.90
2023-02-20T20:04:31.950Z,2.90
2023-02-20T20:07:01.353Z,2.80
2023-02-20T20:09:36.655Z,2.70
2023-02-20T20:12:30.229Z,2.70
2023-02-20T20:15:01.440Z,2.50
2023-02-20T20:17:29.296Z,2.50
2023-02-20T20:19:59.081Z,2.50
2023-02-20T20:22:32.082Z,2.40
2023-02-20T20:25:03.402Z,2.40
2023-02-20T20:27:31.694Z,2.30
2023-02-20T20:29:59.547Z,2.30
2023-02-20T20:32:29.191Z,2.30
2023-02-20T20:34:57.067Z,2.30
2023-02-20T20:37:27.707Z,2.20
2023-02-20T20:39:58.382Z,2.20
2023-02-20T20:42:27.526Z,2.20
2023-02-20T20:44:58.107Z,2.10
2023-02-20T20:47:30.678Z,2.00
2023-02-20T20:49:59.773Z,1.90
2023-02-20T20:52:28.532Z,1.90
2023-02-20T20:54:57.771Z,1.80
2023-02-20T20:57:28.209Z,1.80
2023-02-20T20:59:57.459Z,1.80
2023-02-20T21:02:25.217Z,1.70
2023-02-20T21:05:08.959Z,1.60
2023-02-20T21:07:37.672Z,1.60
2023-02-20T21:10:05.986Z,1.50
2023-02-20T21:12:33.708Z,1.30
2023-02-20T21:15:01.637Z,1.40
2023-02-20T21:17:29.271Z,1.40
2023-02-20T21:19:57.028Z,1.40
2023-02-20T21:22:24.735Z,1.30
2023-02-20T21:24:52.378Z,1.30
2023-02-20T21:27:20.293Z,1.30
2023-02-20T21:29:48.005Z,1.20
2023-02-20T21:32:17.061Z,1.10
2023-02-20T21:34:46.524Z,1.20
2023-02-20T21:37:17.796Z,1.20
2023-02-20T21:39:45.549Z,1.10
2023-02-20T21:42:32.218Z,1.00
2023-02-20T21:44:59.903Z,1.10
2023-02-20T21:47:27.646Z,1.10
2023-02-20T21:49:55.297Z,0.90
2023-02-20T21:52:24.501Z,0.70
2023-02-20T21:54:54.679Z,0.70
2023-02-20T21:57:22.532Z,0.70
2023-02-20T21:59:50.256Z,0.70
2023-02-20T22:02:20.015Z,0.70
2023-02-20T22:04:48.304Z,0.50
2023-02-20T22:10:49.320Z,0.50
2023-02-20T22:13:35.326Z,0.50
2023-02-20T22:16:21.504Z,0.40
2023-02-20T22:19:08.764Z,0.40
2023-02-20T22:21:54.974Z,0.50
2023-02-20T22:24:43.817Z,0.50
2023-02-20T22:27:30.163Z,0.40
2023-02-20T22:30:16.547Z,0.40
2023-02-20T22:33:02.865Z,0.30
2023-02-20T22:35:48.998Z,0.20
2023-02-20T22:38:35.261Z,0.30
2023-02-20T22:41:21.434Z,0.20
2023-02-20T22:44:07.622Z,0.10
2023-02-20T22:46:53.984Z,0.10
2023-02-20T22:49:40.330Z,0.10
2023-02-20T22:52:26.608Z,0.20
2023-02-20T22:55:12.752Z,0.10
2023-02-20T22:57:59.230Z,0.00
2023-02-20T23:00:45.590Z,0.00
2023-02-20T23:03:31.573Z,-0.10
2023-02-20T23:06:19.945Z,-0.20
2023-02-20T23:09:08.740Z,0.00
2023-02-20T23:11:56.587Z,0.10
2023-02-20T23:14:43.853Z,0.10
2023-02-20T23:17:36.939Z,0.00
2023-02-20T23:20:26.554Z,0.10
2023-02-20T23:23:12.852Z,0.00
2023-02-20T23:25:59.117Z,0.10
2023-02-20T23:28:45.237Z,0.40
2023-02-20T23:31:32.742Z,0.20
2023-02-20T23:34:18.939Z,0.20
2023-02-20T23:37:12.097Z,0.30
2023-02-20T23:39:58.185Z,0.10
2023-02-20T23:42:44.593Z,0.10
2023-02-20T23:45:30.904Z,0.20
2023-02-20T23:48:18.526Z,0.20
2023-02-20T23:51:04.689Z,0.20
2023-02-20T23:53:54.721Z,0.20
2023-02-20T23:56:41.825Z,0.20
2023-02-20T23:59:29.075Z,0.10
